Time;durP1;ratioP1;P1;durP2;ratioP2;P2;SDS_P1;SDS_P2;PMS_P1;PMS_P2;Temp;Humidity;BMP_temperature;BMP_pressure;BME280_temperature;BME280_humidity;BME280_pressure;Samples;Min_cycle;Max_cycle;Signal;HPM_P1;HPM_P2
2021/10/24 00:00:35;;;;;;;10.48;5.35;;;7.80;93.10;;;;;;2066103;28;20097;-93
2021/10/24 00:01:36;;;;;;;8.38;5.60;;;7.80;93.10;;;;;;2057901;28;20082;-93
2021/10/24 00:02:37;;;;;;;9.38;5.45;;;7.80;93.10;;;;;;2057273;28;20030;-93
2021/10/24 00:03:38;;;;;;;8.63;5.65;;;7.80;93.10;;;;;;2050108;28;20366;-94
2021/10/24 00:04:39;;;;;;;8.55;5.25;;;7.80;93.10;;;;;;2066076;28;20532;-93
2021/10/24 00:05:39;;;;;;;8.73;5.35;;;7.80;93.10;;;;;;2065900;28;20393;-92
2021/10/24 00:06:40;;;;;;;9.52;5.43;;;7.80;93.10;;;;;;2066327;28;20034;-93
2021/10/24 00:07:41;;;;;;;8.48;5.65;;;7.80;93.10;;;;;;2057617;28;20091;-94
2021/10/24 00:08:41;;;;;;;10.73;5.80;;;7.80;93.10;;;;;;2058044;28;20547;-93
2021/10/24 00:09:42;;;;;;;8.07;5.38;;;7.80;93.10;;;;;;2057168;28;20039;-94
2021/10/24 00:10:44;;;;;;;7.40;5.15;;;7.80;93.10;;;;;;2057810;28;20094;-94
2021/10/24 00:11:45;;;;;;;7.85;4.63;;;7.80;93.10;;;;;;2050405;28;20557;-93
2021/10/24 00:12:47;;;;;;;9.98;5.13;;;7.80;93.10;;;;;;2041543;29;20136;-93
2021/10/24 00:13:47;;;;;;;7.80;5.15;;;7.80;93.10;;;;;;2041987;29;20054;-94
2021/10/24 00:14:48;;;;;;;7.60;5.07;;;7.70;93.10;;;;;;2041854;29;20039;-94
2021/10/24 00:15:49;;;;;;;7.38;4.78;;;7.80;93.10;;;;;;2041982;29;20511;-93
2021/10/24 00:16:49;;;;;;;7.30;4.95;;;7.80;93.10;;;;;;2050918;28;20496;-93
2021/10/24 00:17:50;;;;;;;7.80;5.03;;;7.70;93.10;;;;;;2040875;29;20043;-94
2021/10/24 00:18:51;;;;;;;8.55;5.35;;;7.80;93.10;;;;;;2049344;28;20501;-93
2021/10/24 00:19:52;;;;;;;8.07;5.30;;;7.70;93.10;;;;;;2049772;29;20039;-93
2021/10/24 00:20:53;;;;;;;7.97;5.47;;;7.70;93.10;;;;;;2057891;28;20046;-93
2021/10/24 00:21:54;;;;;;;8.88;5.25;;;7.80;93.10;;;;;;2044704;28;20074;-94
2021/10/24 00:22:54;;;;;;;7.82;5.20;;;7.80;93.10;;;;;;2049432;28;20083;-94
2021/10/24 00:23:55;;;;;;;8.52;4.78;;;7.80;93.10;;;;;;2049615;29;20047;-95
2021/10/24 00:24:56;;;;;;;7.65;5.10;;;7.80;93.10;;;;;;2033970;29;20043;-94
2021/10/24 00:25:57;;;;;;;7.57;5.07;;;7.80;93.40;;;;;;2049984;29;20038;-94
2021/10/24 00:26:58;;;;;;;7.22;5.00;;;7.80;93.10;;;;;;2045290;29;20043;-94
2021/10/24 00:27:58;;;;;;;7.18;5.03;;;7.70;93.00;;;;;;2049799;28;20047;-93
2021/10/24 00:28:59;;;;;;;7.82;5.15;;;7.70;93.10;;;;;;2055089;28;20061;-94
2021/10/24 00:30:00;;;;;;;8.07;5.13;;;7.70;93.00;;;;;;2057950;28;20420;-94
2021/10/24 00:31:01;;;;;;;8.40;5.20;;;7.70;93.10;;;;;;2065974;28;20500;-94
2021/10/24 00:32:02;;;;;;;7.43;4.65;;;7.70;93.30;;;;;;2053462;28;20046;-93
2021/10/24 00:33:06;;;;;;;8.70;5.18;;;7.70;93.10;;;;;;2049701;28;20032;-93
2021/10/24 00:34:07;;;;;;;7.10;4.85;;;7.70;93.10;;;;;;2057507;28;20034;-93
2021/10/24 00:35:08;;;;;;;7.47;5.10;;;7.70;93.10;;;;;;2054130;28;20038;-92
2021/10/24 00:36:08;;;;;;;6.90;4.95;;;7.70;93.10;;;;;;2058023;28;20034;-93
2021/10/24 00:37:09;;;;;;;8.70;4.97;;;7.70;93.10;;;;;;2042738;29;20083;-94
2021/10/24 00:38:10;;;;;;;8.65;5.18;;;7.70;93.10;;;;;;2041860;28;20047;-94
2021/10/24 00:39:11;;;;;;;6.95;4.55;;;7.70;93.00;;;;;;2049231;28;20130;-94
2021/10/24 00:40:12;;;;;;;8.23;4.72;;;7.70;93.10;;;;;;2041680;29;20043;-93
2021/10/24 00:41:13;;;;;;;7.55;4.82;;;7.70;93.10;;;;;;2041554;29;20028;-94
2021/10/24 00:42:13;;;;;;;8.10;5.13;;;7.70;93.10;;;;;;2033883;29;20036;-94
2021/10/24 00:43:14;;;;;;;8.55;5.40;;;7.70;93.00;;;;;;2041766;28;20071;-93
2021/10/24 00:44:33;;;;;;;8.60;5.53;;;7.70;93.00;;;;;;2049858;29;20039;-93
2021/10/24 00:45:34;;;;;;;7.18;4.38;;;7.70;93.00;;;;;;2054537;28;20027;-94
2021/10/24 00:46:34;;;;;;;8.02;4.75;;;7.70;93.00;;;;;;2059176;28;20038;-93
2021/10/24 00:47:35;;;;;;;7.53;5.10;;;7.70;93.00;;;;;;2049263;28;20044;-93
2021/10/24 00:48:36;;;;;;;8.13;5.18;;;7.70;93.00;;;;;;2049372;29;20102;-94
2021/10/24 00:49:36;;;;;;;9.40;5.63;;;7.70;93.00;;;;;;2057510;28;20175;-93
2021/10/24 00:50:37;;;;;;;7.95;5.32;;;7.70;93.00;;;;;;2049711;28;20047;-94
2021/10/24 00:51:38;;;;;;;10.68;5.30;;;7.70;93.00;;;;;;2048737;28;20054;-94
2021/10/24 00:52:42;;;;;;;8.63;5.38;;;7.60;93.00;;;;;;2049744;28;20099;-94
2021/10/24 00:53:43;;;;;;;7.88;5.03;;;7.70;93.30;;;;;;2041484;29;20094;-94
2021/10/24 00:54:44;;;;;;;9.05;5.75;;;7.60;93.00;;;;;;2042388;29;20044;-96
2021/10/24 00:55:45;;;;;;;8.68;5.57;;;7.60;93.00;;;;;;2050683;28;20035;-93
2021/10/24 00:56:49;;;;;;;7.90;5.57;;;7.60;93.00;;;;;;2049453;28;20062;-93
2021/10/24 00:57:50;;;;;;;8.48;5.47;;;7.60;93.00;;;;;;2049468;28;20185;-93
2021/10/24 00:58:53;;;;;;;9.23;5.20;;;7.60;93.00;;;;;;2054835;28;20086;-93
2021/10/24 00:59:54;;;;;;;8.48;5.40;;;7.60;93.00;;;;;;2057934;28;20633;-94
2021/10/24 01:00:55;;;;;;;8.55;5.43;;;7.60;93.00;;;;;;2065537;28;20046;-93
2021/10/24 01:01:56;;;;;;;7.90;5.25;;;7.60;93.00;;;;;;2050666;28;20031;-93
2021/10/24 01:02:56;;;;;;;9.02;5.50;;;7.60;93.00;;;;;;2057621;28;20034;-93
2021/10/24 01:03:57;;;;;;;8.95;5.72;;;7.60;93.00;;;;;;2045428;29;20036;-93
2021/10/24 01:04:58;;;;;;;8.68;6.05;;;7.60;93.00;;;;;;2057568;28;20063;-93
2021/10/24 01:06:00;;;;;;;7.65;5.25;;;7.60;93.00;;;;;;2045283;29;20036;-94
2021/10/24 01:07:04;;;;;;;9.07;6.28;;;7.60;93.00;;;;;;2033593;29;20495;-93
2021/10/24 01:08:05;;;;;;;8.27;5.82;;;7.60;93.00;;;;;;2042047;28;20119;-94
2021/10/24 01:09:10;;;;;;;8.55;5.47;;;7.50;93.00;;;;;;2039344;29;20511;-93
2021/10/24 01:10:15;;;;;;;8.90;5.72;;;7.50;93.00;;;;;;2049594;28;20101;-93
2021/10/24 01:11:16;;;;;;;8.85;5.57;;;7.50;93.00;;;;;;2054239;28;20505;-93
2021/10/24 01:12:17;;;;;;;8.60;5.68;;;7.50;93.00;;;;;;2058045;28;20046;-93
2021/10/24 01:13:17;;;;;;;7.85;5.38;;;7.50;93.00;;;;;;2065509;28;20460;-93
2021/10/24 01:14:18;;;;;;;7.45;5.20;;;7.50;93.00;;;;;;2037695;29;20048;-93
2021/10/24 01:15:23;;;;;;;9.40;5.82;;;7.50;93.00;;;;;;2018173;29;20132;-93
2021/10/24 01:16:24;;;;;;;9.48;5.35;;;7.50;93.00;;;;;;2044706;28;20118;-93
2021/10/24 01:17:25;;;;;;;9.13;5.72;;;7.50;93.00;;;;;;2057359;28;20043;-92
2021/10/24 01:18:26;;;;;;;8.25;5.65;;;7.50;93.00;;;;;;2057705;28;20501;-93
2021/10/24 01:19:27;;;;;;;10.73;5.72;;;7.50;93.00;;;;;;2034785;29;20144;-93
2021/10/24 01:20:29;;;;;;;7.88;5.45;;;7.50;93.00;;;;;;2041551;29;20047;-92
2021/10/24 01:21:30;;;;;;;8.98;5.93;;;7.50;93.00;;;;;;2049653;28;20032;-93
2021/10/24 01:22:35;;;;;;;9.05;6.13;;;7.50;93.00;;;;;;2057632;28;20034;-93
2021/10/24 01:23:36;;;;;;;9.02;5.90;;;7.50;93.00;;;;;;2057459;28;20515;-93
2021/10/24 01:24:37;;;;;;;9.48;5.80;;;7.50;93.00;;;;;;2058465;28;20066;-94
2021/10/24 01:25:37;;;;;;;9.55;5.93;;;7.50;93.00;;;;;;2065344;28;20105;-93
2021/10/24 01:26:39;;;;;;;8.65;5.70;;;7.50;92.90;;;;;;2055907;28;20043;-93
2021/10/24 01:27:40;;;;;;;8.05;5.95;;;7.50;93.00;;;;;;2042026;28;20095;-93
2021/10/24 01:28:41;;;;;;;8.13;5.40;;;7.50;93.00;;;;;;2027182;29;20260;-94
2021/10/24 01:29:41;;;;;;;7.32;5.68;;;7.50;93.00;;;;;;2042579;28;20085;-94
2021/10/24 01:30:42;;;;;;;7.43;5.60;;;7.50;93.00;;;;;;2049412;28;20063;-94
2021/10/24 01:31:43;;;;;;;9.20;5.63;;;7.50;93.00;;;;;;2033507;29;20127;-93
2021/10/24 01:32:44;;;;;;;7.93;5.28;;;7.50;93.00;;;;;;2041825;29;20040;-94
2021/10/24 01:33:45;;;;;;;8.60;5.40;;;7.40;93.00;;;;;;2033853;29;20040;-94
2021/10/24 01:34:46;;;;;;;8.27;6.00;;;7.40;93.00;;;;;;2039764;28;20064;-94
2021/10/24 01:35:59;;;;;;;7.40;5.80;;;7.50;93.00;;;;;;2054381;28;20032;-93
2021/10/24 01:37:00;;;;;;;8.30;6.03;;;7.40;93.00;;;;;;2061904;28;20529;-94
2021/10/24 01:38:00;;;;;;;8.73;6.18;;;7.50;93.00;;;;;;2062955;28;20132;-93
2021/10/24 01:39:02;;;;;;;9.88;6.00;;;7.40;93.00;;;;;;2064259;28;20043;-94
2021/10/24 01:40:07;;;;;;;7.10;5.53;;;7.50;93.00;;;;;;2059564;28;20091;-94
2021/10/24 01:41:09;;;;;;;8.52;5.75;;;7.50;93.00;;;;;;2057258;28;20042;-93
2021/10/24 01:42:10;;;;;;;7.65;5.43;;;7.40;93.00;;;;;;2064596;28;20123;-94
2021/10/24 01:43:11;;;;;;;7.47;5.35;;;7.40;93.00;;;;;;2062346;28;20089;-94
2021/10/24 01:44:14;;;;;;;8.57;5.40;;;7.50;93.00;;;;;;2048450;29;20028;-94
2021/10/24 01:45:15;;;;;;;8.35;5.47;;;7.40;93.00;;;;;;2048464;28;20044;-94
2021/10/24 01:46:16;;;;;;;6.68;4.90;;;7.50;93.00;;;;;;2048813;29;20032;-94
2021/10/24 01:47:17;;;;;;;7.50;5.55;;;7.40;93.00;;;;;;2049920;28;20111;-94
2021/10/24 01:48:18;;;;;;;9.32;5.63;;;7.40;93.00;;;;;;2054239;28;20046;-94
2021/10/24 01:49:19;;;;;;;7.97;5.30;;;7.40;93.00;;;;;;2049099;28;20042;-94
2021/10/24 01:50:20;;;;;;;9.35;5.97;;;7.40;93.00;;;;;;2053766;28;20043;-93
2021/10/24 01:51:21;;;;;;;7.93;5.28;;;7.40;93.00;;;;;;2056885;28;20034;-94
2021/10/24 01:52:22;;;;;;;6.78;4.93;;;7.40;93.00;;;;;;2047664;28;20047;-94
2021/10/24 01:53:29;;;;;;;7.65;5.00;;;7.40;93.00;;;;;;2049759;28;20047;-94
2021/10/24 01:54:30;;;;;;;8.38;5.30;;;7.40;93.00;;;;;;2057701;28;20370;-94
2021/10/24 01:55:32;;;;;;;8.50;5.72;;;7.40;93.00;;;;;;2057775;28;20135;-94
2021/10/24 01:56:32;;;;;;;8.55;4.88;;;7.40;93.00;;;;;;2051850;28;20054;-95
2021/10/24 01:57:33;;;;;;;7.18;5.43;;;7.40;93.00;;;;;;2056313;28;20047;-93
2021/10/24 01:58:34;;;;;;;8.70;5.35;;;7.40;93.00;;;;;;2043048;29;20052;-93
2021/10/24 01:59:35;;;;;;;7.93;5.25;;;7.40;93.00;;;;;;2028270;29;20036;-93
2021/10/24 02:00:36;;;;;;;8.85;5.55;;;7.40;93.00;;;;;;2043253;29;20401;-93
2021/10/24 02:01:37;;;;;;;8.05;5.30;;;7.30;93.00;;;;;;2042904;29;20036;-92
2021/10/24 02:02:37;;;;;;;8.15;5.43;;;7.30;93.00;;;;;;2054077;28;20078;-92
2021/10/24 02:03:38;;;;;;;8.02;5.63;;;7.30;93.00;;;;;;2042676;29;20108;-92
2021/10/24 02:04:39;;;;;;;8.63;5.50;;;7.30;93.00;;;;;;2025797;29;20041;-93
2021/10/24 02:05:40;;;;;;;7.90;5.05;;;7.30;93.00;;;;;;2049353;29;20087;-93
2021/10/24 02:06:40;;;;;;;8.90;5.30;;;7.30;93.10;;;;;;2037898;29;20122;-94
2021/10/24 02:07:41;;;;;;;9.10;5.00;;;7.30;93.00;;;;;;2049195;28;20031;-93
2021/10/24 02:08:42;;;;;;;9.50;5.60;;;7.30;93.00;;;;;;2050885;28;20122;-93
2021/10/24 02:09:42;;;;;;;8.57;5.82;;;7.30;93.10;;;;;;2043516;28;20120;-92
2021/10/24 02:10:44;;;;;;;7.80;5.35;;;7.30;93.10;;;;;;2044256;29;20048;-92
2021/10/24 02:11:44;;;;;;;8.63;5.80;;;7.20;93.10;;;;;;2058806;28;20030;-92
2021/10/24 02:12:46;;;;;;;8.63;5.50;;;7.20;93.10;;;;;;2042897;29;20151;-93
2021/10/24 02:13:47;;;;;;;8.07;5.25;;;7.20;93.10;;;;;;2043068;29;20047;-93
2021/10/24 02:14:48;;;;;;;9.18;5.50;;;7.30;93.10;;;;;;2051814;28;20081;-93
2021/10/24 02:15:48;;;;;;;9.70;5.88;;;7.30;93.10;;;;;;2042941;28;20095;-93
2021/10/24 02:16:49;;;;;;;8.80;5.47;;;7.20;93.10;;;;;;2050121;28;20091;-92
2021/10/24 02:17:51;;;;;;;9.32;5.75;;;7.20;93.10;;;;;;2059227;28;20043;-93
2021/10/24 02:18:51;;;;;;;7.78;5.30;;;7.20;93.10;;;;;;2066597;28;20046;-93
2021/10/24 02:19:52;;;;;;;8.85;5.68;;;7.20;93.00;;;;;;2059708;28;20086;-92
2021/10/24 02:20:53;;;;;;;9.02;5.40;;;7.20;93.00;;;;;;2058928;28;20027;-92
2021/10/24 02:21:54;;;;;;;7.25;5.00;;;7.20;93.00;;;;;;2042687;29;20035;-92
2021/10/24 02:22:55;;;;;;;7.45;5.20;;;7.20;93.10;;;;;;2050785;28;20494;-92
2021/10/24 02:23:56;;;;;;;9.32;5.30;;;7.20;93.00;;;;;;2058556;28;20050;-93
2021/10/24 02:24:56;;;;;;;8.43;5.50;;;7.20;93.10;;;;;;2037898;29;20042;-93
2021/10/24 02:25:57;;;;;;;7.65;5.22;;;7.10;93.00;;;;;;2034665;29;20044;-93
2021/10/24 02:26:58;;;;;;;8.43;5.70;;;7.20;93.10;;;;;;2050639;29;20039;-92
2021/10/24 02:27:58;;;;;;;7.65;5.57;;;7.10;93.10;;;;;;2043387;28;20047;-93
2021/10/24 02:28:59;;;;;;;8.60;5.88;;;7.10;93.10;;;;;;2042519;28;20039;-94
2021/10/24 02:30:00;;;;;;;8.45;5.55;;;7.10;93.10;;;;;;2042460;29;20067;-93
2021/10/24 02:31:01;;;;;;;8.23;5.47;;;7.10;93.10;;;;;;2058575;28;20074;-93
2021/10/24 02:32:02;;;;;;;8.50;5.40;;;7.10;93.10;;;;;;2050095;28;20070;-94
2021/10/24 02:33:03;;;;;;;7.63;5.75;;;7.10;93.10;;;;;;2050906;28;20448;-93
2021/10/24 02:34:04;;;;;;;8.10;5.30;;;7.10;93.10;;;;;;2050547;29;20063;-92
2021/10/24 02:35:06;;;;;;;9.02;5.90;;;7.10;93.10;;;;;;2040249;29;20046;-92
2021/10/24 02:36:06;;;;;;;8.20;5.55;;;7.10;93.10;;;;;;2043085;28;20040;-92
2021/10/24 02:37:07;;;;;;;9.07;5.82;;;7.10;93.10;;;;;;2058703;28;20060;-92
2021/10/24 02:38:08;;;;;;;8.57;5.80;;;7.00;93.10;;;;;;2058568;28;20070;-93
2021/10/24 02:39:08;;;;;;;8.77;5.78;;;7.00;93.10;;;;;;2053213;28;20107;-93
2021/10/24 02:40:10;;;;;;;8.32;5.50;;;7.00;93.10;;;;;;2055477;28;20039;-93
2021/10/24 02:41:10;;;;;;;7.68;5.43;;;7.00;93.10;;;;;;2050903;28;20051;-93
2021/10/24 02:42:14;;;;;;;8.80;5.20;;;7.00;93.10;;;;;;2051019;29;20449;-92
2021/10/24 02:43:15;;;;;;;7.57;5.10;;;7.00;93.20;;;;;;2059871;28;20027;-93
2021/10/24 02:44:15;;;;;;;8.90;5.45;;;7.00;93.20;;;;;;2058997;28;20125;-94
2021/10/24 02:45:16;;;;;;;7.47;5.35;;;7.00;93.20;;;;;;2058764;28;20086;-94
2021/10/24 02:46:17;;;;;;;7.93;5.45;;;7.00;93.20;;;;;;2066972;28;20034;-93
2021/10/24 02:47:18;;;;;;;9.35;5.72;;;6.90;93.20;;;;;;2062964;28;20043;-93
2021/10/24 02:48:19;;;;;;;7.90;5.30;;;7.00;93.20;;;;;;2051200;28;20035;-93
2021/10/24 02:49:19;;;;;;;7.57;5.47;;;7.00;93.20;;;;;;2043711;28;20035;-94
2021/10/24 02:50:20;;;;;;;7.78;5.63;;;7.00;93.20;;;;;;2051593;28;20627;-93
2021/10/24 02:51:21;;;;;;;10.57;5.82;;;6.90;93.20;;;;;;2059697;28;20046;-93
2021/10/24 02:52:21;;;;;;;8.18;5.88;;;6.90;93.20;;;;;;2052109;28;20103;-94
2021/10/24 02:53:22;;;;;;;8.40;5.82;;;7.00;93.20;;;;;;2052369;29;20050;-93
2021/10/24 02:54:23;;;;;;;8.57;5.78;;;6.90;93.20;;;;;;2059993;28;20034;-93
2021/10/24 02:55:24;;;;;;;8.40;5.80;;;6.90;93.20;;;;;;2060447;28;20035;-92
2021/10/24 02:56:25;;;;;;;8.32;5.68;;;6.90;93.20;;;;;;2053471;28;20066;-93
2021/10/24 02:57:25;;;;;;;8.20;5.65;;;6.90;93.20;;;;;;2046944;29;20069;-94
2021/10/24 02:58:26;;;;;;;9.43;5.50;;;6.90;93.20;;;;;;2050452;29;20058;-93
2021/10/24 02:59:27;;;;;;;7.80;5.40;;;6.90;93.20;;;;;;2058466;28;20103;-93
2021/10/24 03:00:27;;;;;;;8.65;5.55;;;6.90;93.20;;;;;;2062155;28;20316;-92
2021/10/24 03:01:28;;;;;;;8.73;6.22;;;6.90;93.20;;;;;;2060358;28;20084;-93
2021/10/24 03:02:29;;;;;;;8.07;5.80;;;6.80;93.20;;;;;;2060357;28;20031;-93
2021/10/24 03:03:29;;;;;;;9.15;5.80;;;6.80;93.20;;;;;;2059159;28;20600;-94
2021/10/24 03:04:30;;;;;;;7.85;5.95;;;6.80;93.30;;;;;;2058250;28;20035;-93
2021/10/24 03:05:31;;;;;;;8.27;5.60;;;6.80;93.30;;;;;;2069805;28;20126;-94
2021/10/24 03:06:32;;;;;;;7.65;5.22;;;6.80;93.30;;;;;;2066057;28;20019;-93
2021/10/24 03:07:33;;;;;;;8.15;5.40;;;6.80;93.30;;;;;;2060026;28;20051;-94
2021/10/24 03:08:33;;;;;;;8.00;5.75;;;6.80;93.30;;;;;;2060232;28;20034;-93
2021/10/24 03:09:34;;;;;;;8.02;5.95;;;6.80;93.30;;;;;;2044042;29;20032;-94
2021/10/24 03:10:35;;;;;;;7.80;5.50;;;6.80;93.30;;;;;;2066389;28;20022;-93
2021/10/24 03:11:35;;;;;;;9.57;6.13;;;6.80;93.30;;;;;;2086720;28;20053;-93
2021/10/24 03:12:36;;;;;;;8.57;5.75;;;6.80;93.30;;;;;;2069512;28;20431;-93
2021/10/24 03:13:37;;;;;;;9.02;5.50;;;6.80;93.30;;;;;;2059753;28;20047;-92
2021/10/24 03:14:37;;;;;;;8.65;6.03;;;6.80;93.30;;;;;;2051206;28;20492;-92
2021/10/24 03:15:38;;;;;;;8.30;5.40;;;6.70;93.30;;;;;;2050529;28;20047;-93
2021/10/24 03:16:39;;;;;;;10.45;6.07;;;6.80;93.30;;;;;;2060022;28;20031;-93
2021/10/24 03:17:40;;;;;;;9.48;5.68;;;6.80;93.30;;;;;;2067255;28;20042;-93
2021/10/24 03:18:42;;;;;;;9.05;5.97;;;6.70;93.30;;;;;;2050593;28;20377;-93
2021/10/24 03:19:43;;;;;;;9.45;5.78;;;6.80;93.30;;;;;;2050925;28;20063;-93
2021/10/24 03:20:44;;;;;;;8.82;5.82;;;6.70;93.30;;;;;;2042955;29;20063;-93
2021/10/24 03:21:44;;;;;;;11.00;5.93;;;6.70;93.30;;;;;;2052159;28;20560;-93
2021/10/24 03:22:45;;;;;;;8.50;5.75;;;6.70;93.30;;;;;;2063002;28;20030;-92
2021/10/24 03:23:46;;;;;;;8.93;5.70;;;6.70;93.30;;;;;;2059080;28;20067;-92
2021/10/24 03:24:46;;;;;;;8.93;6.28;;;6.70;93.30;;;;;;2065076;28;20082;-91
2021/10/24 03:25:49;;;;;;;8.80;5.50;;;6.70;93.30;;;;;;2081874;28;20038;-92
2021/10/24 03:26:49;;;;;;;10.60;5.85;;;6.70;93.30;;;;;;2075419;28;20038;-92
2021/10/24 03:27:50;;;;;;;8.63;5.85;;;6.70;93.30;;;;;;2063304;28;20011;-93
2021/10/24 03:28:51;;;;;;;9.13;5.97;;;6.70;93.40;;;;;;2059232;28;20091;-93
2021/10/24 03:29:51;;;;;;;7.88;5.60;;;6.60;93.30;;;;;;2064577;28;20039;-93
2021/10/24 03:30:55;;;;;;;7.75;5.55;;;6.70;93.40;;;;;;2067127;28;20035;-94
2021/10/24 03:31:55;;;;;;;8.82;5.55;;;6.70;93.40;;;;;;2067648;28;20019;-92
2021/10/24 03:32:56;;;;;;;8.93;5.57;;;6.70;93.40;;;;;;2059933;28;20035;-92
2021/10/24 03:33:57;;;;;;;7.82;5.60;;;6.70;93.40;;;;;;2068308;28;20019;-92
2021/10/24 03:34:58;;;;;;;8.25;5.82;;;6.70;93.40;;;;;;2069517;28;20062;-92
2021/10/24 03:35:59;;;;;;;9.30;5.95;;;6.70;93.40;;;;;;2052257;28;20035;-91
2021/10/24 03:36:59;;;;;;;7.75;5.72;;;6.70;93.40;;;;;;2059575;28;20090;-92
2021/10/24 03:38:00;;;;;;;7.93;5.32;;;6.70;93.40;;;;;;2058891;28;20035;-93
2021/10/24 03:39:01;;;;;;;7.55;5.50;;;6.60;93.40;;;;;;2061755;28;20035;-92
2021/10/24 03:40:03;;;;;;;8.10;5.75;;;6.60;93.40;;;;;;2068040;28;20033;-94
2021/10/24 03:41:03;;;;;;;8.07;5.40;;;6.60;93.40;;;;;;2071099;28;20050;-91
2021/10/24 03:42:04;;;;;;;7.75;5.50;;;6.60;93.40;;;;;;2076087;28;20041;-92
2021/10/24 03:43:05;;;;;;;8.40;5.35;;;6.60;93.40;;;;;;2067812;28;20039;-92
2021/10/24 03:44:06;;;;;;;9.52;6.07;;;6.60;93.40;;;;;;2067964;28;20094;-91
2021/10/24 03:45:07;;;;;;;8.50;5.47;;;6.60;93.40;;;;;;2067703;28;20031;-91
2021/10/24 03:46:08;;;;;;;8.00;5.30;;;6.60;93.40;;;;;;2072698;28;20068;-94
2021/10/24 03:47:09;;;;;;;8.50;5.55;;;6.60;93.40;;;;;;2061213;28;20050;-93
2021/10/24 03:48:10;;;;;;;8.77;5.82;;;6.60;93.40;;;;;;2065618;28;20039;-93
2021/10/24 03:49:11;;;;;;;7.57;5.47;;;6.60;93.30;;;;;;2068032;28;20057;-93
2021/10/24 03:50:11;;;;;;;8.95;5.47;;;6.60;93.50;;;;;;2062282;28;20031;-92
2021/10/24 03:51:12;;;;;;;9.60;5.82;;;6.60;93.50;;;;;;2068253;28;20090;-93
2021/10/24 03:52:13;;;;;;;7.45;5.38;;;6.60;93.50;;;;;;2059956;28;20058;-93
2021/10/24 03:53:15;;;;;;;8.68;5.25;;;6.60;93.50;;;;;;2052058;28;20114;-93
2021/10/24 03:54:15;;;;;;;8.82;5.78;;;6.60;93.50;;;;;;2060150;28;20067;-92
2021/10/24 03:55:16;;;;;;;7.13;5.15;;;6.60;93.50;;;;;;2044743;29;20023;-93
2021/10/24 03:56:17;;;;;;;7.45;5.15;;;6.60;93.50;;;;;;2044025;28;20017;-93
2021/10/24 03:57:19;;;;;;;7.80;5.50;;;6.60;93.50;;;;;;2059787;28;20020;-95
2021/10/24 03:58:20;;;;;;;8.65;5.78;;;6.60;93.50;;;;;;2073553;28;20034;-94
2021/10/24 03:59:20;;;;;;;8.93;5.45;;;6.60;93.50;;;;;;2074456;28;20022;-93
2021/10/24 04:00:21;;;;;;;8.50;5.65;;;6.60;93.50;;;;;;2066986;28;20034;-94
2021/10/24 04:01:21;;;;;;;8.10;5.63;;;6.60;93.50;;;;;;2049648;28;20023;-94
2021/10/24 04:02:22;;;;;;;8.85;5.50;;;6.60;93.50;;;;;;2067430;28;20011;-93
2021/10/24 04:03:23;;;;;;;8.32;5.35;;;6.60;93.50;;;;;;2066788;28;20042;-92
2021/10/24 04:04:23;;;;;;;7.03;5.03;;;6.60;93.50;;;;;;2051581;28;20047;-90
2021/10/24 04:05:26;;;;;;;7.93;5.35;;;6.50;93.50;;;;;;2067313;28;20082;-93
2021/10/24 04:06:27;;;;;;;7.88;4.97;;;6.50;93.50;;;;;;2050123;28;20028;-94
2021/10/24 04:07:27;;;;;;;7.90;5.43;;;6.50;93.50;;;;;;2058915;28;20086;-92
2021/10/24 04:08:28;;;;;;;7.82;5.40;;;6.50;93.50;;;;;;2063333;28;20041;-94
2021/10/24 04:09:29;;;;;;;8.38;5.40;;;6.60;93.50;;;;;;2058789;28;20031;-94
2021/10/24 04:10:30;;;;;;;9.18;5.60;;;6.50;93.50;;;;;;2063275;28;20049;-94
2021/10/24 04:11:31;;;;;;;8.27;5.43;;;6.50;93.50;;;;;;2058943;28;20049;-93
2021/10/24 04:12:31;;;;;;;7.95;5.32;;;6.50;93.50;;;;;;2063990;28;20042;-94
2021/10/24 04:13:32;;;;;;;7.53;5.40;;;6.50;93.50;;;;;;2050808;28;20020;-93
2021/10/24 04:14:33;;;;;;;7.32;5.20;;;6.50;93.50;;;;;;2051759;28;20054;-92
2021/10/24 04:15:33;;;;;;;9.00;5.93;;;6.60;93.50;;;;;;2050457;29;20043;-93
2021/10/24 04:16:34;;;;;;;7.75;5.50;;;6.50;93.50;;;;;;2042838;29;20035;-92
2021/10/24 04:17:35;;;;;;;7.63;5.25;;;6.50;93.50;;;;;;2043249;29;20056;-93
2021/10/24 04:18:36;;;;;;;7.47;4.95;;;6.60;93.50;;;;;;2052339;28;20055;-93
2021/10/24 04:19:37;;;;;;;7.80;5.00;;;6.50;93.50;;;;;;2050503;29;20031;-94
2021/10/24 04:20:37;;;;;;;8.85;5.50;;;6.60;93.50;;;;;;2050893;28;20028;-93
2021/10/24 04:21:38;;;;;;;8.93;5.40;;;6.50;93.50;;;;;;2050905;29;20083;-93
2021/10/24 04:22:39;;;;;;;9.25;5.55;;;6.50;93.50;;;;;;2044216;29;20497;-93
2021/10/24 04:23:40;;;;;;;7.20;4.93;;;6.50;93.50;;;;;;2051646;28;20028;-91
2021/10/24 04:24:41;;;;;;;8.00;5.25;;;6.60;93.50;;;;;;2051632;29;20048;-93
2021/10/24 04:25:41;;;;;;;10.52;5.45;;;6.60;93.50;;;;;;2050119;28;20142;-91
2021/10/24 04:26:42;;;;;;;9.93;5.15;;;6.50;93.50;;;;;;2058621;28;20033;-92
2021/10/24 04:27:43;;;;;;;7.40;5.00;;;6.50;93.50;;;;;;2058158;28;20035;-93
2021/10/24 04:28:44;;;;;;;7.20;5.13;;;6.50;93.80;;;;;;2042232;28;20028;-93
2021/10/24 04:29:45;;;;;;;8.23;5.22;;;6.50;93.50;;;;;;2050075;28;20055;-93
2021/10/24 04:30:45;;;;;;;6.70;4.65;;;6.50;93.50;;;;;;2040173;29;20022;-93
2021/10/24 04:31:46;;;;;;;8.73;4.93;;;6.50;93.50;;;;;;2036380;29;20096;-92
2021/10/24 04:32:47;;;;;;;7.93;5.28;;;6.50;93.50;;;;;;2058353;28;20023;-93
2021/10/24 04:33:48;;;;;;;7.25;4.70;;;6.50;93.50;;;;;;2062513;28;20093;-93
2021/10/24 04:34:49;;;;;;;7.43;4.88;;;6.50;93.50;;;;;;2058059;28;20038;-93
2021/10/24 04:35:49;;;;;;;6.72;4.90;;;6.50;93.50;;;;;;2057516;28;20026;-92
2021/10/24 04:36:50;;;;;;;6.68;4.85;;;6.50;93.50;;;;;;2055551;28;20086;-93
2021/10/24 04:37:51;;;;;;;6.47;4.93;;;6.50;93.50;;;;;;2063404;28;20031;-93
2021/10/24 04:38:52;;;;;;;9.73;5.40;;;6.50;93.50;;;;;;2055833;28;20031;-92
2021/10/24 04:39:52;;;;;;;6.88;4.85;;;6.50;93.50;;;;;;2045698;28;20036;-93
2021/10/24 04:40:53;;;;;;;7.85;4.93;;;6.50;93.50;;;;;;2058221;28;20130;-94
2021/10/24 04:41:54;;;;;;;7.80;5.05;;;6.50;93.50;;;;;;2068980;28;20582;-92
2021/10/24 04:42:54;;;;;;;7.60;4.82;;;6.50;93.50;;;;;;2067705;28;20042;-93
2021/10/24 04:43:55;;;;;;;7.70;5.03;;;6.50;93.50;;;;;;2038213;29;20040;-93
2021/10/24 04:44:56;;;;;;;6.93;4.55;;;6.50;93.80;;;;;;2057661;28;20031;-92
2021/10/24 04:45:57;;;;;;;8.48;4.72;;;6.50;93.60;;;;;;2047582;28;20118;-92
2021/10/24 04:46:58;;;;;;;8.20;4.65;;;6.50;93.60;;;;;;2041335;28;20373;-92
2021/10/24 04:47:59;;;;;;;7.75;4.95;;;6.50;93.60;;;;;;2041102;29;20036;-92
2021/10/24 04:49:02;;;;;;;7.15;5.05;;;6.50;93.60;;;;;;2047114;28;20058;-93
2021/10/24 04:50:04;;;;;;;6.57;4.68;;;6.40;93.60;;;;;;2046561;28;20039;-92
2021/10/24 04:51:05;;;;;;;8.10;5.05;;;6.50;93.60;;;;;;2049392;28;20079;-92
2021/10/24 04:52:06;;;;;;;7.28;4.97;;;6.40;93.60;;;;;;2048633;29;20027;-92
2021/10/24 04:53:08;;;;;;;8.40;5.28;;;6.40;93.60;;;;;;2057046;28;20215;-92
2021/10/24 04:54:09;;;;;;;8.98;4.93;;;6.40;93.60;;;;;;2056964;28;20046;-91
2021/10/24 04:55:11;;;;;;;7.72;4.93;;;6.50;93.60;;;;;;2052590;28;20045;-93
2021/10/24 04:56:11;;;;;;;7.63;4.93;;;6.50;93.60;;;;;;2041284;29;20094;-93
2021/10/24 04:57:12;;;;;;;7.47;5.15;;;6.40;93.60;;;;;;2045040;28;20555;-93
2021/10/24 04:58:13;;;;;;;8.63;5.07;;;6.40;93.60;;;;;;2048782;28;20150;-94
2021/10/24 04:59:13;;;;;;;7.28;4.97;;;6.50;93.60;;;;;;2048646;28;20035;-92
2021/10/24 05:00:14;;;;;;;7.32;5.05;;;6.40;93.60;;;;;;2046395;29;20047;-94
2021/10/24 05:01:15;;;;;;;7.85;5.05;;;6.40;93.60;;;;;;2048697;29;20041;-93
2021/10/24 05:02:15;;;;;;;6.95;4.97;;;6.40;93.80;;;;;;2060367;28;20049;-94
2021/10/24 05:03:16;;;;;;;7.70;4.88;;;6.40;93.60;;;;;;2045573;29;20071;-94
2021/10/24 05:04:18;;;;;;;7.53;4.72;;;6.40;93.60;;;;;;2041746;29;20039;-93
2021/10/24 05:05:19;;;;;;;8.07;4.78;;;6.40;93.60;;;;;;2034125;29;20032;-93
2021/10/24 05:06:20;;;;;;;8.20;4.72;;;6.40;93.60;;;;;;2049732;28;20031;-93
2021/10/24 05:07:21;;;;;;;6.57;4.70;;;6.40;93.60;;;;;;2052925;28;20042;-93
2021/10/24 05:08:21;;;;;;;7.72;4.68;;;6.40;93.60;;;;;;2049675;29;20070;-94
2021/10/24 05:09:22;;;;;;;7.38;4.97;;;6.40;93.60;;;;;;2033756;29;20040;-93
2021/10/24 05:10:23;;;;;;;7.57;4.95;;;6.40;93.60;;;;;;2049250;28;20043;-92
2021/10/24 05:11:24;;;;;;;7.13;5.03;;;6.40;93.60;;;;;;2049187;28;20043;-93
2021/10/24 05:12:24;;;;;;;9.60;5.88;;;6.40;93.60;;;;;;2049987;28;20035;-93
2021/10/24 05:13:25;;;;;;;7.45;4.90;;;6.40;93.60;;;;;;2049143;28;20031;-94
2021/10/24 05:14:26;;;;;;;8.82;5.30;;;6.40;93.60;;;;;;2049219;29;20054;-93
2021/10/24 05:15:26;;;;;;;7.80;5.10;;;6.40;93.50;;;;;;2041487;29;20036;-93
2021/10/24 05:16:27;;;;;;;7.38;4.90;;;6.40;93.60;;;;;;2035780;29;20123;-93
2021/10/24 05:17:28;;;;;;;8.40;5.20;;;6.40;93.60;;;;;;2047986;28;20510;-94
2021/10/24 05:18:28;;;;;;;7.40;5.00;;;6.40;93.60;;;;;;2057180;28;20145;-94
2021/10/24 05:19:29;;;;;;;8.75;5.40;;;6.40;93.60;;;;;;2056933;28;20042;-93
2021/10/24 05:20:30;;;;;;;8.80;4.75;;;6.40;93.60;;;;;;2049304;28;20054;-93
2021/10/24 05:21:31;;;;;;;7.68;5.13;;;6.40;93.60;;;;;;2041369;29;20107;-93
2021/10/24 05:22:33;;;;;;;8.13;4.88;;;6.40;93.60;;;;;;2048594;28;20043;-93